SPLO

Ilo Airport

Ilo, Peru
SPLO 231650Z 2318/2418 14010KT CAVOK TX24/2319Z TN16/2411Z
Issued Valid From Valid To
Apr-23 @ 16:50 UTC
(6 hours ago)
Apr-23 @ 18:00 UTC
(5 hours ago)
Apr-24 @ 18:00 UTC
(in 19 hours)
Apr-23 @ 18:00 to Apr-24 @ 18:00
SPLO 231650Z 2318/2418 14010KT CAVOK TX24/2319Z TN16/2411Z
Wind Visibility Clouds
140° at 10 knots 10,000+ meters
  • No significant clouds
SPLO 231650Z 2318/2418 14010KT CAVOK TX24/2319Z TN16/2411Z
Issued Apr-23 @ 16:50 UTC
(6 hours ago)
Valid From Apr-23 @ 18:00 UTC
(5 hours ago)
Valid To Apr-24 @ 18:00 UTC
(in 19 hours)
Apr-23 @ 18:00 - Apr-24 @ 18:00
Wind Visibility
140° at 10 knots 10,000+ meters
Clouds
  • No significant clouds